TAF and METAR

Could not understand the following METAR

YDBY 192000Z AUTO 09002KT 9999 // NCD 25/18 Q1013
No TAF available for Derby Airport